Time;durP1;ratioP1;P1;durP2;ratioP2;P2;SDS_P1;SDS_P2;PMS_P1;PMS_P2;Temp;Humidity;BMP_temperature;BMP_pressure;BME280_temperature;BME280_humidity;BME280_pressure;Samples;Min_cycle;Max_cycle;Signal;HPM_P1;HPM_P2
2023/10/28 00:01:15;;;;;;;4.57;3.10;;;409.60;2355.20;;;;;;5072734;28;20043;-75
2023/10/28 00:03:41;;;;;;;7.82;3.30;;;409.60;2355.20;;;;;;5051888;28;20033;-74
2023/10/28 00:06:08;;;;;;;9.65;3.15;;;409.60;2355.20;;;;;;5070446;28;20021;-75
2023/10/28 00:08:36;;;;;;;7.57;3.25;;;409.60;2355.20;;;;;;5051776;28;20064;-74
2023/10/28 00:11:04;;;;;;;6.00;3.72;;;409.70;2355.20;;;;;;5057433;28;20029;-74
2023/10/28 00:13:30;;;;;;;6.68;3.25;;;384.90;2329.60;;;;;;5073092;28;20021;-75
2023/10/28 00:15:56;;;;;;;9.02;3.60;;;384.80;2329.60;;;;;;5072684;28;20009;-74
2023/10/28 00:18:22;;;;;;;7.50;3.70;;;384.70;2329.60;;;;;;5072962;28;20039;-75
2023/10/28 00:20:47;;;;;;;7.63;3.83;;;384.70;2048.00;;;;;;5067287;28;20024;-74
2023/10/28 00:23:14;;;;;;;8.23;3.40;;;384.90;2329.60;;;;;;5064900;28;20509;-75
2023/10/28 00:25:41;;;;;;;8.32;3.47;;;384.90;2329.60;;;;;;5072550;28;20052;-75
2023/10/28 00:28:07;;;;;;;7.70;4.18;;;384.90;2329.60;;;;;;5054765;28;20027;-74
2023/10/28 00:30:33;;;;;;;7.68;3.95;;;384.90;2329.60;;;;;;5072694;28;20028;-75
2023/10/28 00:32:59;;;;;;;8.90;4.03;;;384.90;2329.60;;;;;;5051268;28;20144;-75
2023/10/28 00:35:27;;;;;;;6.65;4.05;;;384.70;2329.60;;;;;;5071751;28;20154;-75
2023/10/28 00:37:54;;;;;;;12.27;4.55;;;384.70;2329.60;;;;;;5072771;28;20371;-74
2023/10/28 00:40:20;;;;;;;8.98;3.67;;;384.70;2329.60;;;;;;5054605;28;20024;-74
2023/10/28 00:42:46;;;;;;;7.22;3.85;;;384.70;2329.60;;;;;;5072828;28;20024;-75
2023/10/28 00:45:13;;;;;;;9.82;4.85;;;384.70;1996.80;;;;;;5059048;28;20028;-75
2023/10/28 00:47:42;;;;;;;10.80;5.28;;;384.70;2329.60;;;;;;5072648;28;20509;-74
2023/10/28 00:50:14;;;;;;;8.95;3.83;;;384.70;2329.60;;;;;;5059586;28;20020;-75
2023/10/28 00:52:44;;;;;;;10.55;4.32;;;384.70;2329.60;;;;;;5085614;28;20047;-74
2023/10/28 00:55:11;;;;;;;11.27;4.57;;;384.80;2329.60;;;;;;5100044;28;20023;-74
2023/10/28 00:57:42;;;;;;;7.28;4.18;;;384.90;2329.60;;;;;;5100787;28;20386;-74
2023/10/28 01:00:10;;;;;;;8.05;3.92;;;384.80;2329.60;;;;;;5092769;28;20020;-74
2023/10/28 01:02:38;;;;;;;10.07;4.65;;;384.60;1945.60;;;;;;5092726;28;20103;-75
2023/10/28 01:05:05;;;;;;;6.65;4.32;;;384.60;2201.60;;;;;;5091318;28;20036;-74
2023/10/28 01:07:32;;;;;;;8.40;3.83;;;384.60;2227.20;;;;;;5092421;28;20016;-74
2023/10/28 01:09:58;;;;;;;5.50;3.72;;;384.50;2227.20;;;;;;5093732;28;20069;-76
2023/10/28 01:12:26;;;;;;;10.02;3.40;;;384.60;2329.60;;;;;;5096386;28;20030;-74
2023/10/28 01:14:53;;;;;;;6.35;3.33;;;384.60;2329.60;;;;;;5093990;28;20040;-75
2023/10/28 01:17:21;;;;;;;7.50;3.53;;;384.70;2329.60;;;;;;5095648;28;20020;-77
2023/10/28 01:19:47;;;;;;;5.07;2.92;;;384.70;2329.60;;;;;;5085977;28;20077;-76
2023/10/28 01:22:13;;;;;;;6.10;2.88;;;409.60;2355.20;;;;;;5092916;28;20095;-75
2023/10/28 01:24:39;;;;;;;6.80;2.83;;;384.50;2329.60;;;;;;5096084;28;20509;-76
2023/10/28 01:27:05;;;;;;;6.75;2.88;;;384.70;2329.60;;;;;;5096034;28;20056;-76
2023/10/28 01:29:33;;;;;;;6.45;3.03;;;384.70;2329.60;;;;;;5095547;28;20390;-74
2023/10/28 01:31:59;;;;;;;7.47;3.30;;;384.70;2329.60;;;;;;5095842;28;20031;-74
2023/10/28 01:34:25;;;;;;;7.13;4.38;;;384.70;2329.60;;;;;;5085680;28;20459;-74
2023/10/28 01:36:51;;;;;;;7.70;3.80;;;384.50;2329.60;;;;;;5075610;28;20390;-74
2023/10/28 01:39:17;;;;;;;8.80;4.38;;;384.30;2329.60;;;;;;5086406;28;20091;-74
2023/10/28 01:41:43;;;;;;;9.00;4.35;;;384.20;2329.60;;;;;;5080823;28;20016;-74
2023/10/28 01:44:09;;;;;;;10.23;4.68;;;384.20;2329.60;;;;;;5094514;28;20035;-74
2023/10/28 01:46:34;;;;;;;6.60;4.30;;;384.10;2329.60;;;;;;5094923;28;20123;-75
2023/10/28 01:49:00;;;;;;;9.13;4.65;;;384.00;2329.60;;;;;;5095794;28;20028;-74
2023/10/28 01:51:26;;;;;;;7.47;4.75;;;384.10;2329.60;;;;;;5094947;28;20044;-74
2023/10/28 01:53:52;;;;;;;10.63;4.85;;;384.10;2329.60;;;;;;5085359;28;20059;-75
2023/10/28 01:56:18;;;;;;;5.35;3.75;;;384.20;2124.80;;;;;;5092404;28;20016;-75
2023/10/28 01:58:43;;;;;;;8.00;4.97;;;384.30;2022.40;;;;;;5095717;28;20027;-74
2023/10/28 02:01:09;;;;;;;7.72;4.25;;;384.30;2329.60;;;;;;5095233;28;20500;-74
2023/10/28 02:03:35;;;;;;;10.30;4.68;;;384.20;2329.60;;;;;;5087253;28;20031;-74
2023/10/28 02:06:01;;;;;;;8.98;4.47;;;384.10;2329.60;;;;;;5095174;28;20032;-75
2023/10/28 02:08:27;;;;;;;5.38;3.83;;;359.30;2329.60;;;;;;5094140;28;20117;-75
2023/10/28 02:10:52;;;;;;;9.18;4.03;;;359.20;2329.60;;;;;;5095163;28;20019;-74
2023/10/28 02:13:18;;;;;;;8.88;3.67;;;359.00;2329.60;;;;;;5095397;28;20055;-75
2023/10/28 02:15:51;;;;;;;7.68;4.53;;;359.00;2329.60;;;;;;5095091;28;20028;-75
2023/10/28 02:18:18;;;;;;;9.85;3.75;;;358.90;2329.60;;;;;;5095086;28;20024;-75
2023/10/28 02:20:44;;;;;;;6.82;4.18;;;358.90;2329.60;;;;;;5094542;28;20024;-75
2023/10/28 02:23:13;;;;;;;7.05;4.38;;;358.80;2329.60;;;;;;5094754;28;20039;-74
2023/10/28 02:25:41;;;;;;;8.35;3.97;;;358.80;2329.60;;;;;;5094878;28;20122;-75
2023/10/28 02:28:08;;;;;;;8.93;4.18;;;358.80;2329.60;;;;;;5094919;28;20081;-74
2023/10/28 02:30:40;;;;;;;9.93;4.05;;;358.70;2329.60;;;;;;5080150;28;20115;-76
2023/10/28 02:33:06;;;;;;;9.27;4.00;;;358.70;2329.60;;;;;;5089994;28;20025;-74
2023/10/28 02:35:33;;;;;;;7.38;4.07;;;358.80;2099.20;;;;;;5094511;28;20078;-74
2023/10/28 02:37:59;;;;;;;8.85;4.05;;;358.80;2099.20;;;;;;5094821;28;20031;-74
2023/10/28 02:40:24;;;;;;;12.10;5.40;;;359.00;1945.60;;;;;;5094902;28;20106;-75
2023/10/28 02:42:50;;;;;;;7.38;3.97;;;359.00;2329.60;;;;;;5094548;28;20024;-75
2023/10/28 02:45:16;;;;;;;7.30;3.90;;;359.00;2329.60;;;;;;5080780;28;20393;-75
2023/10/28 02:47:42;;;;;;;5.68;3.42;;;359.00;2329.60;;;;;;5094639;28;20095;-74
2023/10/28 02:50:09;;;;;;;7.75;4.35;;;359.00;2329.60;;;;;;5094149;28;20020;-74
2023/10/28 02:52:35;;;;;;;6.25;4.55;;;359.00;2329.60;;;;;;5094440;28;20169;-74
2023/10/28 02:55:02;;;;;;;24.70;4.80;;;359.00;2329.60;;;;;;5093777;28;20024;-75
2023/10/28 02:57:28;;;;;;;8.48;4.13;;;359.10;2329.60;;;;;;5089479;28;20426;-74
2023/10/28 02:59:54;;;;;;;7.72;4.25;;;359.10;2329.60;;;;;;5093802;28;20076;-75
2023/10/28 03:02:19;;;;;;;9.63;4.47;;;359.00;2329.60;;;;;;5089420;28;20073;-75
2023/10/28 03:04:45;;;;;;;7.82;4.57;;;358.80;1971.20;;;;;;5087487;28;20043;-75
2023/10/28 03:07:11;;;;;;;10.13;4.93;;;358.90;2329.60;;;;;;5087093;28;20067;-75
2023/10/28 03:09:37;;;;;;;6.25;4.43;;;358.80;2252.80;;;;;;5074227;28;20031;-74
2023/10/28 03:12:03;;;;;;;5.20;3.83;;;358.80;2329.60;;;;;;5087084;28;20020;-74
2023/10/28 03:14:28;;;;;;;6.25;4.18;;;358.80;2329.60;;;;;;5093976;28;20466;-74
2023/10/28 03:16:54;;;;;;;10.68;4.13;;;358.90;2329.60;;;;;;5093828;28;20024;-75
2023/10/28 03:19:20;;;;;;;10.25;4.47;;;359.00;2150.40;;;;;;5094014;28;20214;-75
2023/10/28 03:21:45;;;;;;;7.75;4.10;;;359.00;2329.60;;;;;;5093888;28;20042;-75
2023/10/28 03:24:12;;;;;;;6.95;4.38;;;359.20;2329.60;;;;;;5078988;28;20153;-74
2023/10/28 03:26:38;;;;;;;10.43;4.25;;;359.10;2329.60;;;;;;5094126;28;20520;-75
2023/10/28 03:29:04;;;;;;;7.72;4.47;;;359.10;2329.60;;;;;;5093607;28;20107;-75
2023/10/28 03:31:30;;;;;;;10.25;6.63;;;359.00;2329.60;;;;;;5093540;28;20450;-76
2023/10/28 03:33:55;;;;;;;7.93;4.40;;;358.90;2329.60;;;;;;5091822;28;20035;-76
2023/10/28 03:36:21;;;;;;;7.40;4.22;;;358.80;2329.60;;;;;;5093586;28;20031;-75
2023/10/28 03:38:47;;;;;;;8.05;4.45;;;358.80;2329.60;;;;;;5093380;28;20024;-75
2023/10/28 03:41:13;;;;;;;9.60;4.10;;;358.80;2329.60;;;;;;5093641;28;20030;-75
2023/10/28 03:43:40;;;;;;;13.30;3.95;;;358.80;2329.60;;;;;;5080024;28;20031;-74
2023/10/28 03:46:05;;;;;;;8.68;4.65;;;358.80;2329.60;;;;;;5091975;28;20035;-74
2023/10/28 03:48:32;;;;;;;8.38;5.35;;;358.80;2329.60;;;;;;5079979;28;20478;-74
2023/10/28 03:51:00;;;;;;;10.20;4.90;;;358.80;2329.60;;;;;;5093367;28;20028;-74
2023/10/28 03:53:25;;;;;;;9.82;5.30;;;358.80;2329.60;;;;;;5080316;28;20028;-74
2023/10/28 03:55:51;;;;;;;8.35;5.72;;;358.80;2329.60;;;;;;5093385;28;20016;-75
2023/10/28 03:58:17;;;;;;;10.85;5.15;;;358.70;2329.60;;;;;;5093232;28;20023;-76
2023/10/28 04:00:43;;;;;;;11.82;5.38;;;358.70;2329.60;;;;;;5093487;28;20016;-75
2023/10/28 04:03:09;;;;;;;10.80;6.55;;;358.60;2329.60;;;;;;5086711;28;20035;-75
2023/10/28 04:05:34;;;;;;;15.85;7.20;;;358.80;2329.60;;;;;;5073040;28;20090;-75
2023/10/28 04:08:00;;;;;;;9.20;5.68;;;358.80;2329.60;;;;;;5092925;28;20035;-75
2023/10/28 04:10:27;;;;;;;8.93;5.00;;;358.80;2329.60;;;;;;5093202;28;20107;-76
2023/10/28 04:12:53;;;;;;;9.35;5.35;;;358.70;2329.60;;;;;;5079275;28;20019;-75
2023/10/28 04:15:18;;;;;;;7.97;5.07;;;358.70;2329.60;;;;;;5093204;28;20103;-74
2023/10/28 04:17:44;;;;;;;9.23;4.20;;;358.80;2329.60;;;;;;5078047;28;20092;-75
2023/10/28 04:20:10;;;;;;;7.40;4.57;;;358.90;2329.60;;;;;;5092863;28;20039;-74
2023/10/28 04:22:37;;;;;;;8.48;4.65;;;359.00;2329.60;;;;;;5093157;28;20029;-74
2023/10/28 04:25:03;;;;;;;9.45;4.50;;;359.00;2329.60;;;;;;5087776;28;20529;-76
2023/10/28 04:27:29;;;;;;;18.13;5.68;;;359.10;2329.60;;;;;;5086492;28;20028;-73
2023/10/28 04:29:55;;;;;;;5.97;4.03;;;359.20;2329.60;;;;;;5084226;28;20058;-74
2023/10/28 04:32:22;;;;;;;6.88;4.18;;;359.20;2329.60;;;;;;5083206;28;20013;-75
2023/10/28 04:34:50;;;;;;;9.63;4.22;;;359.20;2329.60;;;;;;5080202;28;20474;-73
2023/10/28 04:37:16;;;;;;;9.73;4.00;;;359.10;2329.60;;;;;;5084088;28;20081;-74
2023/10/28 04:39:42;;;;;;;8.05;4.30;;;359.20;2329.60;;;;;;5082169;28;20032;-73
2023/10/28 04:42:08;;;;;;;6.72;4.40;;;359.10;2329.60;;;;;;5087404;28;20021;-74
2023/10/28 04:44:33;;;;;;;12.38;4.28;;;359.00;2329.60;;;;;;5086320;28;20071;-74
2023/10/28 04:47:01;;;;;;;12.32;5.38;;;358.90;2329.60;;;;;;5087681;28;20477;-75
2023/10/28 04:49:28;;;;;;;10.40;4.30;;;358.90;2329.60;;;;;;5085570;28;20107;-74
2023/10/28 04:51:54;;;;;;;10.30;5.32;;;358.80;2329.60;;;;;;5067365;28;20079;-74
2023/10/28 04:54:21;;;;;;;11.13;5.00;;;358.80;2329.60;;;;;;5053995;28;20030;-74
2023/10/28 04:56:48;;;;;;;8.13;4.40;;;358.70;2329.60;;;;;;5059067;28;20028;-74
2023/10/28 04:59:15;;;;;;;9.10;5.30;;;358.60;2329.60;;;;;;5062181;28;20482;-74
2023/10/28 05:01:41;;;;;;;15.13;4.85;;;358.60;2329.60;;;;;;5062835;28;20174;-74
2023/10/28 05:04:09;;;;;;;8.10;4.25;;;358.50;2329.60;;;;;;5067983;28;20099;-74
2023/10/28 05:06:36;;;;;;;15.13;5.18;;;358.40;2329.60;;;;;;5059210;28;20086;-74
2023/10/28 05:09:02;;;;;;;13.77;6.03;;;333.70;2329.60;;;;;;5060095;28;20032;-74
2023/10/28 05:11:28;;;;;;;10.13;5.32;;;358.40;2329.60;;;;;;5050221;28;20390;-74
2023/10/28 05:13:54;;;;;;;9.82;5.43;;;333.60;2329.60;;;;;;5068576;28;20024;-74
2023/10/28 05:16:20;;;;;;;8.70;5.00;;;333.50;2329.60;;;;;;5063124;28;20093;-74
2023/10/28 05:18:46;;;;;;;8.70;4.90;;;333.40;2329.60;;;;;;5062509;28;20021;-75
2023/10/28 05:21:13;;;;;;;12.52;5.57;;;333.30;2329.60;;;;;;5061312;28;20025;-74
2023/10/28 05:23:39;;;;;;;11.52;5.95;;;333.30;2329.60;;;;;;5067018;28;20029;-74
2023/10/28 05:26:05;;;;;;;11.32;5.72;;;333.20;2329.60;;;;;;5062765;28;20106;-74
2023/10/28 05:28:31;;;;;;;9.48;6.03;;;333.30;2329.60;;;;;;5062773;28;20028;-74
2023/10/28 05:30:57;;;;;;;11.98;5.82;;;333.30;2329.60;;;;;;5068213;28;20100;-75
2023/10/28 05:33:23;;;;;;;9.20;6.05;;;333.40;2329.60;;;;;;5063186;28;20406;-74
2023/10/28 05:35:49;;;;;;;12.07;6.47;;;333.50;2329.60;;;;;;5059671;28;20017;-74
2023/10/28 05:38:15;;;;;;;10.73;6.72;;;333.60;2329.60;;;;;;5059102;28;20013;-75
2023/10/28 05:40:41;;;;;;;12.00;6.38;;;333.60;2329.60;;;;;;5057634;28;20512;-71
2023/10/28 05:43:07;;;;;;;12.95;6.80;;;333.70;2329.60;;;;;;5050651;28;20021;-70
2023/10/28 05:45:32;;;;;;;10.85;7.55;;;333.70;2329.60;;;;;;5059347;28;20387;-73
2023/10/28 05:47:58;;;;;;;14.20;7.93;;;333.70;2329.60;;;;;;5057370;28;20025;-73
2023/10/28 05:50:24;;;;;;;14.57;8.13;;;358.40;2329.60;;;;;;5067880;28;20174;-75
2023/10/28 05:52:50;;;;;;;14.98;9.48;;;358.50;2329.60;;;;;;5054697;28;20060;-73
2023/10/28 05:55:16;;;;;;;14.73;6.28;;;358.70;2329.60;;;;;;5084019;28;20028;-72
2023/10/28 05:57:43;;;;;;;7.60;3.95;;;358.80;2329.60;;;;;;5080060;28;20036;-73
2023/10/28 06:00:13;;;;;;;8.48;3.88;;;358.80;2329.60;;;;;;5092603;28;20369;-73
2023/10/28 06:02:39;;;;;;;6.32;4.03;;;358.70;2329.60;;;;;;5082582;28;20035;-72
2023/10/28 06:05:06;;;;;;;9.93;3.63;;;358.70;2329.60;;;;;;5080227;28;20032;-74
2023/10/28 06:07:32;;;;;;;7.15;4.25;;;358.70;2329.60;;;;;;5085488;28;20025;-75
2023/10/28 06:09:58;;;;;;;12.25;4.72;;;358.70;2329.60;;;;;;5090870;28;20024;-72
2023/10/28 06:12:27;;;;;;;7.28;4.63;;;358.80;2329.60;;;;;;5087454;28;20100;-72
2023/10/28 06:14:53;;;;;;;8.05;5.30;;;358.80;2329.60;;;;;;5082909;28;20035;-73
2023/10/28 06:17:20;;;;;;;11.85;7.50;;;358.90;2329.60;;;;;;5077495;28;20012;-73
2023/10/28 06:19:46;;;;;;;11.75;5.35;;;359.00;2329.60;;;;;;5082202;28;20024;-71
2023/10/28 06:22:13;;;;;;;9.15;6.00;;;359.00;2329.60;;;;;;5072855;28;20032;-73
2023/10/28 06:24:39;;;;;;;10.43;5.88;;;359.00;2329.60;;;;;;5089157;28;20031;-73
2023/10/28 06:27:05;;;;;;;9.75;5.47;;;359.20;2329.60;;;;;;5073013;28;20025;-74
2023/10/28 06:29:31;;;;;;;13.27;8.45;;;384.00;2329.60;;;;;;5072876;28;20090;-72
2023/10/28 06:32:00;;;;;;;10.65;6.97;;;384.10;2329.60;;;;;;5085771;28;20482;-74
2023/10/28 06:34:27;;;;;;;10.75;6.25;;;384.40;2329.60;;;;;;5080093;28;20037;-72
2023/10/28 06:36:54;;;;;;;9.55;5.72;;;384.60;2329.60;;;;;;5091169;28;20493;-72
2023/10/28 06:39:20;;;;;;;9.32;5.45;;;384.80;2329.60;;;;;;5072967;28;20043;-73
2023/10/28 06:41:46;;;;;;;7.30;4.47;;;409.60;2355.20;;;;;;5082317;28;20013;-75
2023/10/28 06:44:11;;;;;;;13.35;3.33;;;409.60;2355.20;;;;;;5083953;28;20493;-72
2023/10/28 06:46:37;;;;;;;5.18;3.10;;;409.60;2355.20;;;;;;5088175;28;20111;-75
2023/10/28 06:49:03;;;;;;;6.35;3.55;;;409.80;2355.20;;;;;;5091425;28;20451;-72
2023/10/28 06:51:28;;;;;;;4.10;2.70;;;409.80;2355.20;;;;;;5079991;28;20044;-72
2023/10/28 06:53:54;;;;;;;5.95;3.47;;;409.70;2355.20;;;;;;5082140;28;20020;-74
2023/10/28 06:56:20;;;;;;;5.35;2.92;;;409.90;2355.20;;;;;;5076960;28;20436;-73
2023/10/28 06:58:46;;;;;;;10.02;3.97;;;410.00;2355.20;;;;;;5077248;28;20024;-73
2023/10/28 07:01:12;;;;;;;8.85;3.97;;;410.00;2355.20;;;;;;5083070;28;20029;-74
2023/10/28 07:03:37;;;;;;;5.68;3.50;;;410.00;2355.20;;;;;;5081262;28;20029;-73
2023/10/28 07:06:04;;;;;;;7.13;3.40;;;410.00;2355.20;;;;;;5084744;28;20504;-72
2023/10/28 07:08:30;;;;;;;9.85;3.95;;;410.00;2355.20;;;;;;5077295;28;20027;-73
2023/10/28 07:10:57;;;;;;;4.57;2.35;;;410.20;2355.20;;;;;;5079312;28;20046;-73
2023/10/28 07:13:22;;;;;;;5.35;2.10;;;410.10;2355.20;;;;;;5080159;28;20052;-71
2023/10/28 07:15:48;;;;;;;4.03;1.70;;;410.30;2355.20;;;;;;5085165;28;20048;-72
2023/10/28 07:18:14;;;;;;;3.83;2.00;;;410.30;2355.20;;;;;;5081480;28;20145;-71
2023/10/28 07:20:40;;;;;;;2.50;1.58;;;410.50;2355.20;;;;;;5080620;28;20589;-72
2023/10/28 07:23:06;;;;;;;3.90;1.77;;;410.50;2355.20;;;;;;5079102;28;20027;-72
2023/10/28 07:25:32;;;;;;;2.92;1.30;;;410.50;2355.20;;;;;;5081759;28;20401;-73
2023/10/28 07:27:58;;;;;;;4.30;1.98;;;435.20;2355.20;;;;;;5084908;28;20016;-73
2023/10/28 07:30:24;;;;;;;2.55;1.40;;;435.20;2355.20;;;;;;5077640;28;20017;-74
2023/10/28 07:32:50;;;;;;;2.30;1.30;;;435.20;2355.20;;;;;;5083294;28;20021;-73
2023/10/28 07:35:19;;;;;;;3.85;1.50;;;410.50;2355.20;;;;;;5082744;28;20043;-72
2023/10/28 07:37:45;;;;;;;3.42;2.08;;;410.40;2355.20;;;;;;5068058;28;20029;-74
2023/10/28 07:40:11;;;;;;;5.20;2.00;;;410.50;2355.20;;;;;;5085753;28;20106;-74
2023/10/28 07:42:37;;;;;;;5.50;1.85;;;410.40;2355.20;;;;;;5084942;28;20350;-74
2023/10/28 07:45:04;;;;;;;3.15;2.03;;;410.40;2355.20;;;;;;5081258;28;20043;-73
2023/10/28 07:47:31;;;;;;;2.50;1.52;;;410.40;2355.20;;;;;;5083511;28;20054;-77
2023/10/28 07:49:57;;;;;;;3.00;1.63;;;410.50;2355.20;;;;;;5084737;28;20027;-74
2023/10/28 07:52:23;;;;;;;5.03;2.22;;;410.50;2355.20;;;;;;5085275;28;20036;-74
2023/10/28 07:54:48;;;;;;;3.70;1.80;;;435.20;2355.20;;;;;;5087220;28;20064;-75
2023/10/28 07:57:14;;;;;;;3.67;1.60;;;435.20;2355.20;;;;;;5084445;28;20020;-71
2023/10/28 07:59:42;;;;;;;8.73;1.95;;;435.20;2355.20;;;;;;5082912;28;20106;-72
2023/10/28 08:02:07;;;;;;;4.40;2.00;;;435.30;2355.20;;;;;;5100018;28;20556;-72
2023/10/28 08:04:33;;;;;;;5.15;2.38;;;435.30;2355.20;;;;;;5084269;28;20052;-74
2023/10/28 08:06:59;;;;;;;4.28;2.38;;;435.40;2355.20;;;;;;5085052;28;20032;-73
2023/10/28 08:09:25;;;;;;;6.03;2.30;;;435.40;2355.20;;;;;;5085210;28;20064;-74
2023/10/28 08:11:52;;;;;;;5.53;2.60;;;435.40;2355.20;;;;;;5084131;28;20501;-71
2023/10/28 08:14:18;;;;;;;10.90;3.58;;;435.50;2355.20;;;;;;5078781;28;20024;-73
2023/10/28 08:16:45;;;;;;;5.25;3.35;;;435.50;2355.20;;;;;;5078575;28;20024;-73
2023/10/28 08:19:12;;;;;;;6.72;3.67;;;435.80;2355.20;;;;;;5074275;28;20020;-73
2023/10/28 08:21:38;;;;;;;6.65;2.67;;;435.90;2355.20;;;;;;5053168;28;20024;-71
2023/10/28 08:24:04;;;;;;;8.25;2.42;;;436.10;2355.20;;;;;;5076969;28;20021;-72
2023/10/28 08:26:30;;;;;;;5.53;3.15;;;460.80;2380.80;;;;;;5087120;28;20056;-73
2023/10/28 08:28:56;;;;;;;7.03;2.85;;;461.00;2380.80;;;;;;5081908;28;20048;-72
2023/10/28 08:31:21;;;;;;;8.13;2.75;;;461.10;2380.80;;;;;;5086583;28;20107;-73
2023/10/28 08:33:52;;;;;;;4.05;2.47;;;461.30;2380.80;;;;;;5076309;28;20032;-72
2023/10/28 08:36:20;;;;;;;6.57;2.30;;;461.30;2380.80;;;;;;5082431;28;20028;-71
2023/10/28 08:38:47;;;;;;;6.90;2.33;;;461.20;2380.80;;;;;;5078424;28;20024;-73
2023/10/28 08:41:16;;;;;;;7.00;2.65;;;461.10;2380.80;;;;;;5087947;28;20020;-71
2023/10/28 08:43:42;;;;;;;5.93;2.92;;;461.10;2380.80;;;;;;5083742;28;20105;-72
2023/10/28 08:46:08;;;;;;;6.43;2.67;;;461.10;2380.80;;;;;;5080164;28;20075;-75
2023/10/28 08:48:36;;;;;;;6.05;2.88;;;461.20;2380.80;;;;;;5086597;28;20017;-75
2023/10/28 08:51:04;;;;;;;7.20;2.35;;;461.10;2380.80;;;;;;5069019;28;20463;-74
2023/10/28 08:53:33;;;;;;;6.80;2.45;;;461.20;2380.80;;;;;;5076959;28;20036;-75
2023/10/28 08:56:01;;;;;;;4.55;2.05;;;461.40;2380.80;;;;;;5082786;28;20024;-75
2023/10/28 08:58:27;;;;;;;3.90;2.22;;;461.40;2380.80;;;;;;5084839;28;20542;-74
2023/10/28 09:00:56;;;;;;;4.80;1.90;;;461.40;2380.80;;;;;;5082489;28;20051;-75
2023/10/28 09:03:25;;;;;;;6.68;2.00;;;461.40;2380.80;;;;;;5076036;28;20036;-75
2023/10/28 09:05:52;;;;;;;7.00;1.90;;;461.50;2380.80;;;;;;5087641;28;20035;-74
2023/10/28 09:08:20;;;;;;;6.20;1.90;;;461.70;2380.80;;;;;;5083070;28;20020;-75
2023/10/28 09:10:45;;;;;;;3.80;1.90;;;486.50;2380.80;;;;;;5058579;28;20434;-75
2023/10/28 09:13:13;;;;;;;6.10;1.77;;;486.80;2380.80;;;;;;5081279;28;20028;-76
2023/10/28 09:15:39;;;;;;;6.57;2.42;;;486.90;2380.80;;;;;;5063512;28;20020;-75
2023/10/28 09:18:05;;;;;;;8.70;2.10;;;487.00;2380.80;;;;;;5081949;28;20016;-76
2023/10/28 09:20:31;;;;;;;7.72;3.38;;;487.30;2380.80;;;;;;5084859;28;20040;-76
2023/10/28 09:22:57;;;;;;;5.82;1.90;;;512.00;2380.80;;;;;;5082084;28;20387;-75
2023/10/28 09:25:22;;;;;;;7.47;2.85;;;512.40;2380.80;;;;;;5085086;28;20643;-75
2023/10/28 09:27:48;;;;;;;7.60;3.15;;;512.70;2380.80;;;;;;5078119;28;20032;-74
2023/10/28 09:30:15;;;;;;;6.53;2.72;;;537.70;2406.40;;;;;;5082077;28;20016;-74
2023/10/28 09:32:41;;;;;;;3.33;1.65;;;537.90;2406.40;;;;;;5063922;28;20028;-76
2023/10/28 09:35:09;;;;;;;8.13;1.55;;;538.00;2406.40;;;;;;5081210;28;20039;-75
2023/10/28 09:37:36;;;;;;;7.00;1.65;;;538.20;2406.40;;;;;;5084928;28;20021;-75
2023/10/28 09:40:05;;;;;;;2.03;1.30;;;538.30;2406.40;;;;;;5089597;28;20470;-74
2023/10/28 09:42:32;;;;;;;3.78;1.40;;;538.50;2406.40;;;;;;5083781;28;20099;-74
2023/10/28 09:44:59;;;;;;;3.83;1.40;;;538.50;2406.40;;;;;;5084316;28;20036;-76
2023/10/28 09:47:50;;;;;;;3.58;1.63;;;563.30;2432.00;;;;;;5076450;28;20462;-74
2023/10/28 09:50:19;;;;;;;3.28;1.40;;;563.40;2432.00;;;;;;5064621;28;20102;-74
2023/10/28 09:52:48;;;;;;;3.67;1.60;;;538.50;2406.40;;;;;;5076725;28;20052;-76
2023/10/28 09:55:15;;;;;;;2.70;1.50;;;563.40;2432.00;;;;;;5086703;28;20527;-75
2023/10/28 09:57:42;;;;;;;5.13;2.05;;;563.30;2432.00;;;;;;5087011;28;20446;-74
2023/10/28 10:00:19;;;;;;;4.75;1.92;;;563.40;2432.00;;;;;;5084362;28;20020;-74
2023/10/28 10:03:25;;;;;;;7.45;2.70;;;563.50;2432.00;;;;;;5083016;28;20032;-74
2023/10/28 10:05:53;;;;;;;3.63;1.80;;;563.70;2432.00;;;;;;5077390;28;20036;-74
2023/10/28 10:08:23;;;;;;;3.17;1.80;;;564.10;2432.00;;;;;;5078020;28;20012;-74
2023/10/28 10:10:50;;;;;;;5.05;2.00;;;589.30;2432.00;;;;;;5082927;28;20042;-74
2023/10/28 10:13:16;;;;;;;4.90;1.73;;;589.50;2432.00;;;;;;5082688;28;20013;-75
2023/10/28 10:16:03;;;;;;;4.47;1.92;;;589.50;2432.00;;;;;;5086008;28;20059;-74
2023/10/28 10:18:37;;;;;;;7.20;3.90;;;589.70;2432.00;;;;;;5078112;28;20043;-74
2023/10/28 10:21:14;;;;;;;5.07;2.30;;;614.40;2406.40;;;;;;5072765;28;20078;-76
2023/10/28 10:23:44;;;;;;;4.20;1.80;;;614.80;2380.80;;;;;;5083650;28;20019;-76
2023/10/28 10:26:26;;;;;;;5.68;1.73;;;;;;;;;;5082478;28;20032;-75
2023/10/28 10:28:56;;;;;;;4.20;1.90;;;614.90;2176.00;;;;;;5084498;28;20099;-75
2023/10/28 10:31:23;;;;;;;5.13;1.60;;;614.70;2176.00;;;;;;5067329;28;20027;-76
2023/10/28 10:34:07;;;;;;;4.68;1.95;;;615.20;2150.40;;;;;;5064233;28;20021;-75
2023/10/28 10:36:38;;;;;;;2.85;1.58;;;615.00;2150.40;;;;;;5084387;28;20535;-77
2023/10/28 10:39:18;;;;;;;4.75;1.75;;;614.40;2176.00;;;;;;5079686;28;20067;-76
2023/10/28 10:41:49;;;;;;;4.38;1.30;;;589.60;2227.20;;;;;;5066922;28;20024;-74
2023/10/28 10:44:21;;;;;;;4.22;2.00;;;589.50;2252.80;;;;;;5083918;28;20109;-76
2023/10/28 10:46:48;;;;;;;2.75;1.40;;;;;;;;;;5058523;28;20103;-75
2023/10/28 10:49:15;;;;;;;3.22;1.52;;;564.00;2304.00;;;;;;5081468;28;20032;-75
2023/10/28 10:51:42;;;;;;;5.03;1.58;;;563.70;2380.80;;;;;;5079176;28;20040;-75
2023/10/28 10:54:08;;;;;;;2.80;1.73;;;563.60;2432.00;;;;;;5080755;28;20051;-75
2023/10/28 10:56:33;;;;;;;7.45;2.20;;;563.50;2432.00;;;;;;5077573;28;20020;-75
2023/10/28 10:58:59;;;;;;;4.10;1.52;;;563.50;2432.00;;;;;;5083213;28;20554;-75
2023/10/28 11:01:25;;;;;;;3.88;1.80;;;563.40;2432.00;;;;;;5085612;28;20029;-75
2023/10/28 11:03:51;;;;;;;3.08;1.58;;;;;;;;;;5080748;28;20437;-74
2023/10/28 11:06:17;;;;;;;4.72;2.35;;;538.50;2406.40;;;;;;5079332;28;20028;-75
2023/10/28 11:08:43;;;;;;;3.65;1.42;;;538.40;2406.40;;;;;;5078479;28;20553;-74
2023/10/28 11:11:09;;;;;;;5.78;1.30;;;538.40;2406.40;;;;;;5081963;28;20090;-74
2023/10/28 11:13:34;;;;;;;4.40;1.40;;;538.40;2406.40;;;;;;5078926;28;20469;-75
2023/10/28 11:16:00;;;;;;;3.75;1.52;;;538.50;2406.40;;;;;;5083542;28;20082;-75
2023/10/28 11:18:26;;;;;;;3.05;1.88;;;538.50;2406.40;;;;;;5072495;28;20036;-75
2023/10/28 11:20:52;;;;;;;4.30;1.50;;;588.90;2432.00;;;;;;5083067;28;20028;-76
2023/10/28 11:23:19;;;;;;;4.32;1.90;;;589.50;2432.00;;;;;;5085051;28;20032;-76
2023/10/28 11:25:48;;;;;;;4.25;1.75;;;589.20;2432.00;;;;;;5067643;28;20474;-75
2023/10/28 11:28:14;;;;;;;5.40;1.75;;;588.90;2432.00;;;;;;5088985;28;20023;-74
2023/10/28 11:30:48;;;;;;;2.88;1.58;;;564.10;2432.00;;;;;;5083322;28;20025;-74
2023/10/28 11:33:15;;;;;;;3.08;1.73;;;564.10;2432.00;;;;;;5084816;28;20046;-75
2023/10/28 11:35:41;;;;;;;4.15;1.80;;;589.20;2432.00;;;;;;5080757;28;20024;-74
2023/10/28 11:38:10;;;;;;;7.05;2.13;;;588.90;2432.00;;;;;;5087564;28;20024;-75
2023/10/28 11:40:36;;;;;;;11.02;2.38;;;564.10;2432.00;;;;;;5061549;28;20054;-74
2023/10/28 11:43:05;;;;;;;4.35;2.03;;;564.00;2432.00;;;;;;5082299;28;20024;-75
2023/10/28 11:45:30;;;;;;;6.60;1.90;;;563.80;2432.00;;;;;;5088236;28;20040;-74
2023/10/28 11:47:56;;;;;;;3.95;1.83;;;563.80;2432.00;;;;;;5087094;28;20473;-75
2023/10/28 11:50:22;;;;;;;4.97;2.03;;;564.00;2432.00;;;;;;5082275;28;20016;-74
2023/10/28 11:52:49;;;;;;;3.88;2.22;;;564.00;2432.00;;;;;;5070330;28;20053;-76
2023/10/28 11:55:14;;;;;;;5.55;2.10;;;564.10;2432.00;;;;;;5066841;28;20048;-75
2023/10/28 11:57:40;;;;;;;7.40;3.78;;;564.00;2432.00;;;;;;5043900;28;20483;-74
2023/10/28 12:00:06;;;;;;;7.97;3.38;;;563.90;2432.00;;;;;;5055585;28;20029;-75
2023/10/28 12:02:32;;;;;;;6.40;1.92;;;563.90;2432.00;;;;;;5059469;28;20107;-75
2023/10/28 12:04:58;;;;;;;6.70;2.85;;;564.00;2432.00;;;;;;5046138;28;20170;-74
2023/10/28 12:07:24;;;;;;;4.15;2.58;;;563.80;2432.00;;;;;;5065455;28;20016;-75
2023/10/28 12:09:49;;;;;;;6.47;2.55;;;563.80;2432.00;;;;;;5062763;28;20071;-76
2023/10/28 12:12:15;;;;;;;6.20;2.10;;;563.70;2432.00;;;;;;5045486;28;20493;-76
2023/10/28 12:14:41;;;;;;;4.72;1.98;;;563.60;2432.00;;;;;;5043264;28;20028;-77